»·PEaware :: N710DS KSNA-KGCN

N710DS :: KSNA-KGCN

FLIGHT INFORMATION

Flight Status: Arrived
Operator: Privately registered:
United States
More flights under this callsign
Pilot: John H. (10732)
Aircraft: Unknown
(B60T)
More flights by this aircraft type
Origin: KSNA John Wayne-Orange Co
United States
Destination: KGCN Grand Canyon Natl Park
United States
More flights between these airports :: More routes between these airports
Route: +PIGGN2 AVRRY EED PGS GCN
File this flight plan on PilotEdge
Remarks:
Altitude:
(Current/Filed)
25,000ft
Speed:
(Current/Filed)
250kts
Departed: 19-May-19 08:28 PM
Arrived: 19-May-19 09:43 PM
Distance/Time
Traveled:
314nm/1:15
Distance/Time
To Go:
Arrived

Flight Plot

Page will automatically refresh every two minutes.

Flight plan parsing failed; only flown route is shown


Map Options




Map Legend


Flown Route
Filed Route
Departure Airport
Arrival Airport
Navaid (VOR, NDB)
Fix

Horizontal Profiles

Position Reports

Time Latitude Longitude Heading Altitude Ground
Speed
19-May-19 20:16 33.674985 -117.871499 220 59ft 0kts
19-May-19 20:17 33.674985 -117.871499 220 59ft 0kts
19-May-19 20:18 33.674985 -117.871499 220 59ft 0kts
19-May-19 20:19 33.674985 -117.871499 220 59ft 0kts
19-May-19 20:20 33.674985 -117.871499 220 59ft 0kts
19-May-19 20:21 33.674985 -117.871499 220 59ft 0kts
19-May-19 20:22 33.674719 -117.870988 23 59ft 7kts
19-May-19 20:23 33.680148 -117.867664 28 59ft 24kts
19-May-19 20:24 33.680771 -117.866304 117 59ft 0kts
19-May-19 20:25 33.680771 -117.866304 117 59ft 0kts
19-May-19 20:26 33.680218 -117.865959 205 59ft 0kts
19-May-19 20:27 33.654849 -117.882346 209 1638ft 159kts
19-May-19 20:28 33.610707 -117.894378 190 4511ft 168kts
19-May-19 20:29 33.556175 -117.892617 157 6468ft 219kts
19-May-19 20:30 33.505563 -117.854202 132 8949ft 220kts
19-May-19 20:31 33.479397 -117.786060 116 11468ft 229kts
19-May-19 20:32 33.481599 -117.706793 79 13016ft 271kts
19-May-19 20:33 33.516448 -117.625996 57 13012ft 281kts
19-May-19 20:34 33.552945 -117.546972 53 14337ft 250kts
19-May-19 20:35 33.582928 -117.468117 85 15758ft 266kts
19-May-19 20:36 33.580035 -117.380358 87 18254ft 264kts
19-May-19 20:37 33.578483 -117.291640 87 20744ft 270kts
19-May-19 20:38 33.585491 -117.200889 65 23263ft 276kts
19-May-19 20:39 33.605713 -117.107001 67 24949ft 322kts
19-May-19 20:40 33.628674 -116.995164 76 24928ft 358kts
19-May-19 20:41 33.626129 -116.873900 91 24912ft 364kts
19-May-19 20:42 33.622587 -116.752889 90 24903ft 361kts
19-May-19 20:43 33.619306 -116.632626 91 24892ft 359kts
19-May-19 20:44 33.615974 -116.513635 91 24887ft 356kts
19-May-19 20:45 33.612551 -116.394968 91 24883ft 350kts
19-May-19 20:46 33.609463 -116.282386 91 24878ft 331kts
19-May-19 20:47 33.606644 -116.172047 91 24874ft 331kts
19-May-19 20:48 33.603657 -116.058575 90 24869ft 347kts
19-May-19 20:49 33.632169 -115.950505 64 24854ft 336kts
19-May-19 20:50 33.664918 -115.847125 65 24845ft 328kts
19-May-19 20:51 33.694338 -115.753872 65 24837ft 327kts
19-May-19 20:52 33.726495 -115.651585 65 24834ft 327kts
19-May-19 20:53 33.765007 -115.555326 37 24833ft 308kts
19-May-19 20:54 33.829535 -115.487123 35 24799ft 310kts
19-May-19 20:55 33.894754 -115.417945 36 24782ft 313kts
19-May-19 20:56 33.959854 -115.348365 36 24784ft 312kts
19-May-19 20:57 34.024923 -115.278657 37 24768ft 315kts
19-May-19 20:58 34.090697 -115.207993 37 24761ft 317kts
19-May-19 20:59 34.156690 -115.136945 37 24754ft 318kts
19-May-19 21:00 34.222829 -115.065591 37 24747ft 319kts
19-May-19 21:01 34.289157 -114.993862 37 24742ft 320kts
19-May-19 21:02 34.355626 -114.921832 38 24738ft 321kts
19-May-19 21:03 34.422226 -114.849498 38 24735ft 321kts
19-May-19 21:04 34.488852 -114.776970 38 24732ft 322kts
19-May-19 21:05 34.555115 -114.704678 38 24731ft 322kts
19-May-19 21:06 34.621924 -114.631624 39 24730ft 322kts
19-May-19 21:07 34.688614 -114.558538 39 24728ft 322kts
19-May-19 21:08 34.750004 -114.491109 39 24727ft 322kts
19-May-19 21:09 34.816941 -114.418903 38 24726ft 322kts
19-May-19 21:10 34.884420 -114.346900 38 24727ft 322kts
19-May-19 21:11 34.951534 -114.274963 39 24727ft 322kts
19-May-19 21:12 35.018751 -114.202726 39 24727ft 322kts
19-May-19 21:13 35.085827 -114.130472 39 24730ft 322kts
19-May-19 21:14 35.153143 -114.057791 39 24732ft 322kts
19-May-19 21:15 35.220177 -113.985246 39 24732ft 322kts
19-May-19 21:16 35.287027 -113.912735 39 24736ft 321kts
19-May-19 21:17 35.353787 -113.840157 39 24740ft 320kts
19-May-19 21:18 35.420389 -113.767581 39 24739ft 319kts
19-May-19 21:19 35.487234 -113.694571 40 24247ft 329kts
19-May-19 21:20 35.554730 -113.620622 40 22965ft 328kts
19-May-19 21:21 35.620231 -113.548181 45 20965ft 294kts
19-May-19 21:22 35.647007 -113.462838 79 18973ft 255kts
19-May-19 21:23 35.665139 -113.380895 77 16968ft 247kts
19-May-19 21:24 35.676531 -113.297763 92 14980ft 246kts
19-May-19 21:25 35.677369 -113.214365 93 12983ft 242kts
19-May-19 21:26 35.676788 -113.132655 93 11163ft 230kts
19-May-19 21:27 35.675797 -113.049724 93 11074ft 259kts
19-May-19 21:28 35.674321 -112.962898 93 11079ft 252kts
19-May-19 21:29 35.672502 -112.875702 93 10575ft 263kts
19-May-19 21:30 35.670762 -112.790763 93 9354ft 210kts
19-May-19 21:31 35.678083 -112.716996 84 9314ft 248kts
19-May-19 21:32 35.684432 -112.631013 87 9196ft 250kts
19-May-19 21:34 35.689095 -112.546623 88 9179ft 245kts
19-May-19 21:35 35.693370 -112.463747 88 9199ft 240kts
19-May-19 21:36 35.718014 -112.394639 34 9213ft 217kts
19-May-19 21:37 35.760930 -112.348849 42 9208ft 183kts
19-May-19 21:38 35.800640 -112.306589 41 9205ft 193kts
19-May-19 21:39 35.841844 -112.263703 41 9207ft 193kts
19-May-19 21:40 35.881157 -112.222173 41 8215ft 158kts
19-May-19 21:41 35.910482 -112.191211 41 7472ft 129kts
19-May-19 21:42 35.936780 -112.163501 42 6758ft 102kts
19-May-19 21:43 35.947075 -112.151164 130 6612ft 0kts
19-May-19 21:44 35.948734 -112.149018 41 6612ft 23kts
19-May-19 21:45 35.954643 -112.142777 36 6612ft 37kts
19-May-19 21:46 35.957352 -112.139350 216 6612ft 0kts

Navigation Log

Ident Type
Flight plan parsing failed, navigation log unavailable